sensor_id;sensor_type;location;lat;lon;timestamp;pressure;altitude;pressure_sealevel;temperature;humidity
46394;BME280;32099;53.588;10.176;2023-02-28T00:00:33;102829.00;;;3.84;65.55
46394;BME280;32099;53.588;10.176;2023-02-28T00:02:59;102832.72;;;3.81;65.32
46394;BME280;32099;53.588;10.176;2023-02-28T00:05:26;102829.16;;;3.81;65.43
46394;BME280;32099;53.588;10.176;2023-02-28T00:07:52;102828.47;;;3.77;65.52
46394;BME280;32099;53.588;10.176;2023-02-28T00:10:19;102829.44;;;3.76;65.46
46394;BME280;32099;53.588;10.176;2023-02-28T00:12:49;102824.47;;;3.68;65.14
46394;BME280;32099;53.588;10.176;2023-02-28T00:15:15;102833.41;;;3.69;65.51
46394;BME280;32099;53.588;10.176;2023-02-28T00:17:41;102836.13;;;3.69;65.93
46394;BME280;32099;53.588;10.176;2023-02-28T00:20:07;102829.97;;;3.67;65.75
46394;BME280;32099;53.588;10.176;2023-02-28T00:22:35;102835.25;;;3.68;66.23
46394;BME280;32099;53.588;10.176;2023-02-28T00:25:01;102835.25;;;3.68;66.08
46394;BME280;32099;53.588;10.176;2023-02-28T00:27:26;102833.63;;;3.66;65.92
46394;BME280;32099;53.588;10.176;2023-02-28T00:29:51;102828.38;;;3.63;66.04
46394;BME280;32099;53.588;10.176;2023-02-28T00:32:18;102830.13;;;3.64;66.44
46394;BME280;32099;53.588;10.176;2023-02-28T00:34:44;102831.16;;;3.61;66.86
46394;BME280;32099;53.588;10.176;2023-02-28T00:37:09;102838.38;;;3.61;67.03
46394;BME280;32099;53.588;10.176;2023-02-28T00:39:39;102833.09;;;3.59;66.28
46394;BME280;32099;53.588;10.176;2023-02-28T00:42:05;102831.34;;;3.58;66.17
46394;BME280;32099;53.588;10.176;2023-02-28T00:44:31;102836.91;;;3.55;66.35
46394;BME280;32099;53.588;10.176;2023-02-28T00:46:57;102843.34;;;3.52;66.92
46394;BME280;32099;53.588;10.176;2023-02-28T00:49:22;102836.53;;;3.45;66.77
46394;BME280;32099;53.588;10.176;2023-02-28T00:51:48;102837.56;;;3.43;66.81
46394;BME280;32099;53.588;10.176;2023-02-28T00:54:14;102831.50;;;3.39;66.84
46394;BME280;32099;53.588;10.176;2023-02-28T00:56:39;102832.69;;;3.33;66.57
46394;BME280;32099;53.588;10.176;2023-02-28T00:59:04;102832.16;;;3.27;66.60
46394;BME280;32099;53.588;10.176;2023-02-28T01:01:30;102840.66;;;3.19;67.07
46394;BME280;32099;53.588;10.176;2023-02-28T01:03:55;102849.34;;;3.08;67.31
46394;BME280;32099;53.588;10.176;2023-02-28T01:06:20;102850.84;;;2.96;67.42
46394;BME280;32099;53.588;10.176;2023-02-28T01:08:45;102844.84;;;2.91;67.48
46394;BME280;32099;53.588;10.176;2023-02-28T01:11:12;102858.56;;;2.86;67.65
46394;BME280;32099;53.588;10.176;2023-02-28T01:13:39;102857.84;;;2.83;67.79
46394;BME280;32099;53.588;10.176;2023-02-28T01:16:05;102852.44;;;2.83;67.45
46394;BME280;32099;53.588;10.176;2023-02-28T01:18:30;102850.88;;;2.78;68.13
46394;BME280;32099;53.588;10.176;2023-02-28T01:20:56;102858.31;;;2.73;68.50
46394;BME280;32099;53.588;10.176;2023-02-28T01:23:21;102856.81;;;2.68;68.24
46394;BME280;32099;53.588;10.176;2023-02-28T01:25:48;102855.97;;;2.67;67.80
46394;BME280;32099;53.588;10.176;2023-02-28T01:28:14;102849.78;;;2.65;68.37
46394;BME280;32099;53.588;10.176;2023-02-28T01:30:40;102853.19;;;2.69;68.40
46394;BME280;32099;53.588;10.176;2023-02-28T01:33:05;102853.81;;;2.74;67.40
46394;BME280;32099;53.588;10.176;2023-02-28T01:35:34;102854.63;;;2.76;67.72
46394;BME280;32099;53.588;10.176;2023-02-28T01:38:00;102860.00;;;2.76;68.35
46394;BME280;32099;53.588;10.176;2023-02-28T01:40:26;102851.28;;;2.71;68.26
46394;BME280;32099;53.588;10.176;2023-02-28T01:42:51;102853.34;;;2.66;68.69
46394;BME280;32099;53.588;10.176;2023-02-28T01:45:18;102855.41;;;2.60;68.40
46394;BME280;32099;53.588;10.176;2023-02-28T01:47:48;102851.91;;;2.58;68.79
46394;BME280;32099;53.588;10.176;2023-02-28T01:50:21;102847.47;;;2.57;68.97
46394;BME280;32099;53.588;10.176;2023-02-28T01:52:50;102841.38;;;2.54;68.97
46394;BME280;32099;53.588;10.176;2023-02-28T01:55:19;102846.88;;;2.52;69.34
46394;BME280;32099;53.588;10.176;2023-02-28T01:57:49;102851.44;;;2.50;69.26
46394;BME280;32099;53.588;10.176;2023-02-28T02:00:18;102845.50;;;2.43;69.13
46394;BME280;32099;53.588;10.176;2023-02-28T02:02:49;102852.31;;;2.33;69.42
46394;BME280;32099;53.588;10.176;2023-02-28T02:05:20;102842.00;;;2.24;69.63
46394;BME280;32099;53.588;10.176;2023-02-28T02:07:51;102842.28;;;2.18;69.12
46394;BME280;32099;53.588;10.176;2023-02-28T02:13:19;102833.88;;;2.06;69.47
46394;BME280;32099;53.588;10.176;2023-02-28T02:33:39;102835.84;;;1.47;69.90
46394;BME280;32099;53.588;10.176;2023-02-28T02:36:36;102838.66;;;1.44;69.67
46394;BME280;32099;53.588;10.176;2023-02-28T02:39:14;102837.81;;;1.43;69.36
46394;BME280;32099;53.588;10.176;2023-02-28T02:41:49;102836.28;;;1.37;69.53
46394;BME280;32099;53.588;10.176;2023-02-28T02:44:22;102836.53;;;1.31;69.93
46394;BME280;32099;53.588;10.176;2023-02-28T02:46:54;102832.53;;;1.21;70.16
46394;BME280;32099;53.588;10.176;2023-02-28T02:49:28;102841.88;;;1.12;70.75
46394;BME280;32099;53.588;10.176;2023-02-28T02:51:57;102840.34;;;1.06;70.81
46394;BME280;32099;53.588;10.176;2023-02-28T02:54:28;102839.69;;;1.01;70.35
46394;BME280;32099;53.588;10.176;2023-02-28T02:56:59;102839.91;;;0.97;70.87
46394;BME280;32099;53.588;10.176;2023-02-28T02:59:30;102840.91;;;0.94;70.88
46394;BME280;32099;53.588;10.176;2023-02-28T03:02:01;102838.41;;;0.89;70.77
46394;BME280;32099;53.588;10.176;2023-02-28T03:04:32;102839.56;;;0.84;70.79
46394;BME280;32099;53.588;10.176;2023-02-28T03:07:03;102833.59;;;0.77;70.75
46394;BME280;32099;53.588;10.176;2023-02-28T03:09:28;102840.09;;;0.71;70.86
46394;BME280;32099;53.588;10.176;2023-02-28T03:11:54;102832.22;;;0.68;71.32
46394;BME280;32099;53.588;10.176;2023-02-28T03:30:41;102853.44;;;0.52;71.12
46394;BME280;32099;53.588;10.176;2023-02-28T03:33:21;102847.34;;;0.49;71.34
46394;BME280;32099;53.588;10.176;2023-02-28T03:35:53;102849.38;;;0.43;71.63
46394;BME280;32099;53.588;10.176;2023-02-28T03:41:14;102855.78;;;0.39;71.17
46394;BME280;32099;53.588;10.176;2023-02-28T03:43:50;102848.78;;;0.35;71.64
46394;BME280;32099;53.588;10.176;2023-02-28T03:46:20;102851.63;;;0.32;71.89
46394;BME280;32099;53.588;10.176;2023-02-28T03:48:57;102859.81;;;0.29;71.72
46394;BME280;32099;53.588;10.176;2023-02-28T03:51:29;102853.59;;;0.28;71.69
46394;BME280;32099;53.588;10.176;2023-02-28T03:53:58;102849.94;;;0.29;71.64
46394;BME280;32099;53.588;10.176;2023-02-28T03:56:31;102852.56;;;0.31;71.63
46394;BME280;32099;53.588;10.176;2023-02-28T03:59:04;102857.97;;;0.29;71.74
46394;BME280;32099;53.588;10.176;2023-02-28T04:01:37;102849.19;;;0.26;71.38
46394;BME280;32099;53.588;10.176;2023-02-28T04:04:06;102854.63;;;0.24;71.42
46394;BME280;32099;53.588;10.176;2023-02-28T04:06:32;102859.19;;;0.22;71.75
46394;BME280;32099;53.588;10.176;2023-02-28T04:08:59;102855.88;;;0.15;71.52
46394;BME280;32099;53.588;10.176;2023-02-28T04:11:38;102848.97;;;0.10;72.16
46394;BME280;32099;53.588;10.176;2023-02-28T04:14:05;102856.25;;;0.06;72.13
46394;BME280;32099;53.588;10.176;2023-02-28T04:16:32;102857.28;;;0.04;72.25
46394;BME280;32099;53.588;10.176;2023-02-28T04:18:59;102852.75;;;0.04;72.28
46394;BME280;32099;53.588;10.176;2023-02-28T04:21:30;102856.25;;;0.06;71.97
46394;BME280;32099;53.588;10.176;2023-02-28T04:24:10;102860.78;;;0.06;71.74
46394;BME280;32099;53.588;10.176;2023-02-28T04:26:41;102858.22;;;0.03;71.40
46394;BME280;32099;53.588;10.176;2023-02-28T04:29:09;102861.00;;;-0.01;71.75
46394;BME280;32099;53.588;10.176;2023-02-28T04:31:36;102853.97;;;-0.03;72.13
46394;BME280;32099;53.588;10.176;2023-02-28T04:34:02;102854.91;;;-0.04;71.97
46394;BME280;32099;53.588;10.176;2023-02-28T04:36:28;102850.53;;;-0.07;71.64
46394;BME280;32099;53.588;10.176;2023-02-28T04:38:54;102850.66;;;-0.10;72.05
46394;BME280;32099;53.588;10.176;2023-02-28T04:41:19;102855.19;;;-0.12;71.89
46394;BME280;32099;53.588;10.176;2023-02-28T04:43:47;102848.91;;;-0.11;71.74
46394;BME280;32099;53.588;10.176;2023-02-28T04:46:13;102855.09;;;-0.09;71.00
46394;BME280;32099;53.588;10.176;2023-02-28T04:48:39;102847.34;;;-0.17;71.26
46394;BME280;32099;53.588;10.176;2023-02-28T04:51:08;102859.00;;;-0.18;71.62
46394;BME280;32099;53.588;10.176;2023-02-28T04:53:36;102856.31;;;-0.18;72.02
46394;BME280;32099;53.588;10.176;2023-02-28T04:56:02;102856.44;;;-0.21;71.80
46394;BME280;32099;53.588;10.176;2023-02-28T04:58:28;102858.19;;;-0.20;71.75
46394;BME280;32099;53.588;10.176;2023-02-28T05:00:54;102861.03;;;-0.24;72.19
46394;BME280;32099;53.588;10.176;2023-02-28T05:03:27;102868.28;;;-0.26;72.35
46394;BME280;32099;53.588;10.176;2023-02-28T05:05:52;102863.97;;;-0.30;72.35
46394;BME280;32099;53.588;10.176;2023-02-28T05:08:17;102866.66;;;-0.30;72.13
46394;BME280;32099;53.588;10.176;2023-02-28T05:10:43;102870.28;;;-0.32;72.18
46394;BME280;32099;53.588;10.176;2023-02-28T05:13:10;102870.28;;;-0.32;71.71
46394;BME280;32099;53.588;10.176;2023-02-28T05:15:37;102869.53;;;-0.35;71.70
46394;BME280;32099;53.588;10.176;2023-02-28T05:18:02;102870.69;;;-0.42;71.98
46394;BME280;32099;53.588;10.176;2023-02-28T05:20:28;102866.31;;;-0.45;72.40
46394;BME280;32099;53.588;10.176;2023-02-28T05:22:53;102875.34;;;-0.48;72.36
46394;BME280;32099;53.588;10.176;2023-02-28T05:25:19;102872.78;;;-0.51;73.06
46394;BME280;32099;53.588;10.176;2023-02-28T05:27:47;102876.50;;;-0.55;73.03
46394;BME280;32099;53.588;10.176;2023-02-28T05:30:13;102874.81;;;-0.57;72.57
46394;BME280;32099;53.588;10.176;2023-02-28T05:32:39;102882.13;;;-0.61;73.03
46394;BME280;32099;53.588;10.176;2023-02-28T05:35:07;102883.97;;;-0.63;72.92
46394;BME280;32099;53.588;10.176;2023-02-28T05:37:34;102877.78;;;-0.65;72.97
46394;BME280;32099;53.588;10.176;2023-02-28T05:39:59;102878.69;;;-0.65;72.62
46394;BME280;32099;53.588;10.176;2023-02-28T05:42:24;102869.81;;;-0.67;72.95
46394;BME280;32099;53.588;10.176;2023-02-28T05:44:50;102869.00;;;-0.69;72.93
46394;BME280;32099;53.588;10.176;2023-02-28T05:47:15;102868.16;;;-0.71;73.23
46394;BME280;32099;53.588;10.176;2023-02-28T05:49:41;102871.91;;;-0.75;72.95
46394;BME280;32099;53.588;10.176;2023-02-28T05:52:07;102873.88;;;-0.80;73.48
46394;BME280;32099;53.588;10.176;2023-02-28T05:54:32;102882.91;;;-0.83;73.62
46394;BME280;32099;53.588;10.176;2023-02-28T05:56:58;102887.44;;;-0.85;73.20
46394;BME280;32099;53.588;10.176;2023-02-28T05:59:23;102883.88;;;-0.85;73.51
46394;BME280;32099;53.588;10.176;2023-02-28T06:01:48;102890.13;;;-0.85;73.08
46394;BME280;32099;53.588;10.176;2023-02-28T06:04:14;102883.94;;;-0.87;73.46
46394;BME280;32099;53.588;10.176;2023-02-28T06:06:44;102891.13;;;-0.87;73.08
46394;BME280;32099;53.588;10.176;2023-02-28T06:09:10;102890.31;;;-0.89;73.21
46394;BME280;32099;53.588;10.176;2023-02-28T06:11:36;102890.34;;;-0.91;73.69
46394;BME280;32099;53.588;10.176;2023-02-28T06:14:02;102895.75;;;-0.93;73.56
46394;BME280;32099;53.588;10.176;2023-02-28T06:16:28;102892.16;;;-0.91;73.58
46394;BME280;32099;53.588;10.176;2023-02-28T06:18:54;102896.63;;;-0.92;73.12
46394;BME280;32099;53.588;10.176;2023-02-28T06:21:22;102891.31;;;-0.94;73.11
46394;BME280;32099;53.588;10.176;2023-02-28T06:23:47;102895.94;;;-0.97;72.94
46394;BME280;32099;53.588;10.176;2023-02-28T06:26:13;102904.94;;;-1.00;73.25
46394;BME280;32099;53.588;10.176;2023-02-28T06:28:38;102890.78;;;-1.03;73.69
46394;BME280;32099;53.588;10.176;2023-02-28T06:31:08;102897.88;;;-1.02;73.59
46394;BME280;32099;53.588;10.176;2023-02-28T06:33:34;102907.81;;;-1.04;73.24
46394;BME280;32099;53.588;10.176;2023-02-28T06:36:00;102910.41;;;-1.03;73.97
46394;BME280;32099;53.588;10.176;2023-02-28T06:38:26;102907.81;;;-1.04;74.32
46394;BME280;32099;53.588;10.176;2023-02-28T06:40:54;102906.09;;;-1.07;74.34
46394;BME280;32099;53.588;10.176;2023-02-28T06:43:21;102907.91;;;-1.07;74.84
46394;BME280;32099;53.588;10.176;2023-02-28T06:45:47;102910.59;;;-1.09;74.26
46394;BME280;32099;53.588;10.176;2023-02-28T06:48:12;102905.25;;;-1.09;74.17
46394;BME280;32099;53.588;10.176;2023-02-28T06:50:38;102906.09;;;-1.07;74.37
46394;BME280;32099;53.588;10.176;2023-02-28T06:53:03;102908.75;;;-1.07;74.32
46394;BME280;32099;53.588;10.176;2023-02-28T06:55:28;102906.03;;;-1.05;74.20
46394;BME280;32099;53.588;10.176;2023-02-28T06:57:54;102913.16;;;-1.04;74.18
46394;BME280;32099;53.588;10.176;2023-02-28T07:00:19;102917.47;;;-1.00;74.71
46394;BME280;32099;53.588;10.176;2023-02-28T07:02:45;102911.09;;;-0.98;74.01
46394;BME280;32099;53.588;10.176;2023-02-28T07:05:12;102913.66;;;-0.93;74.52
46394;BME280;32099;53.588;10.176;2023-02-28T07:07:37;102914.41;;;-0.89;74.14
46394;BME280;32099;53.588;10.176;2023-02-28T07:10:05;102915.06;;;-0.83;74.94
46394;BME280;32099;53.588;10.176;2023-02-28T07:12:31;102916.66;;;-0.77;74.30
46394;BME280;32099;53.588;10.176;2023-02-28T07:14:56;102919.09;;;-0.71;74.11
46394;BME280;32099;53.588;10.176;2023-02-28T07:17:21;102916.25;;;-0.66;73.92
46394;BME280;32099;53.588;10.176;2023-02-28T07:19:47;102922.34;;;-0.63;73.94
46394;BME280;32099;53.588;10.176;2023-02-28T07:22:12;102924.81;;;-0.56;73.99
46394;BME280;32099;53.588;10.176;2023-02-28T07:24:37;102925.41;;;-0.48;73.95
46394;BME280;32099;53.588;10.176;2023-02-28T07:27:03;102927.72;;;-0.39;73.79
46394;BME280;32099;53.588;10.176;2023-02-28T07:29:28;102922.03;;;-0.29;73.21
46394;BME280;32099;53.588;10.176;2023-02-28T07:31:53;102919.03;;;-0.22;73.20
46394;BME280;32099;53.588;10.176;2023-02-28T07:34:19;102924.06;;;-0.12;73.38
46394;BME280;32099;53.588;10.176;2023-02-28T07:36:45;102913.03;;;-0.05;72.85
46394;BME280;32099;53.588;10.176;2023-02-28T07:39:10;102924.34;;;0.04;73.10
46394;BME280;32099;53.588;10.176;2023-02-28T07:41:36;102924.06;;;0.11;72.86
46394;BME280;32099;53.588;10.176;2023-02-28T07:44:07;102922.75;;;0.22;72.99
46394;BME280;32099;53.588;10.176;2023-02-28T07:46:33;102920.53;;;0.32;72.77
46394;BME280;32099;53.588;10.176;2023-02-28T07:49:00;102933.66;;;0.39;72.32
46394;BME280;32099;53.588;10.176;2023-02-28T07:51:27;102927.84;;;0.50;72.46
46394;BME280;32099;53.588;10.176;2023-02-28T07:53:53;102928.28;;;0.61;72.46
46394;BME280;32099;53.588;10.176;2023-02-28T07:56:18;102930.38;;;0.75;71.91
46394;BME280;32099;53.588;10.176;2023-02-28T07:58:44;102926.28;;;0.87;71.80
46394;BME280;32099;53.588;10.176;2023-02-28T08:01:10;102941.75;;;1.03;71.73
46394;BME280;32099;53.588;10.176;2023-02-28T08:03:36;102933.94;;;1.17;71.31
46394;BME280;32099;53.588;10.176;2023-02-28T08:06:05;102944.00;;;1.33;71.30
46394;BME280;32099;53.588;10.176;2023-02-28T08:08:33;102938.84;;;1.49;70.51
46394;BME280;32099;53.588;10.176;2023-02-28T08:11:02;102931.88;;;1.64;70.64
46394;BME280;32099;53.588;10.176;2023-02-28T08:13:28;102925.50;;;1.85;70.17
46394;BME280;32099;53.588;10.176;2023-02-28T08:15:54;102937.91;;;2.07;69.38
46394;BME280;32099;53.588;10.176;2023-02-28T08:18:21;102927.75;;;2.31;68.75
46394;BME280;32099;53.588;10.176;2023-02-28T08:20:47;102933.78;;;2.56;68.88
46394;BME280;32099;53.588;10.176;2023-02-28T08:23:13;102937.84;;;2.82;68.28
46394;BME280;32099;53.588;10.176;2023-02-28T08:25:38;102943.63;;;3.09;67.09
46394;BME280;32099;53.588;10.176;2023-02-28T08:28:03;102937.97;;;3.32;67.00
46394;BME280;32099;53.588;10.176;2023-02-28T08:30:29;102937.63;;;3.55;66.21
46394;BME280;32099;53.588;10.176;2023-02-28T08:32:54;102936.97;;;3.84;66.01
46394;BME280;32099;53.588;10.176;2023-02-28T08:35:20;102937.41;;;4.08;65.16
46394;BME280;32099;53.588;10.176;2023-02-28T08:37:47;102944.91;;;4.35;65.32
46394;BME280;32099;53.588;10.176;2023-02-28T08:40:13;102935.47;;;4.58;64.15
46394;BME280;32099;53.588;10.176;2023-02-28T08:42:42;102947.53;;;4.83;63.78
46394;BME280;32099;53.588;10.176;2023-02-28T08:45:09;102935.22;;;5.08;62.50
46394;BME280;32099;53.588;10.176;2023-02-28T08:47:34;102945.31;;;5.20;62.05
46394;BME280;32099;53.588;10.176;2023-02-28T08:50:00;102939.16;;;5.33;61.46
46394;BME280;32099;53.588;10.176;2023-02-28T08:52:25;102945.63;;;5.45;61.41
46394;BME280;32099;53.588;10.176;2023-02-28T08:54:50;102943.88;;;5.58;61.18
46394;BME280;32099;53.588;10.176;2023-02-28T08:57:15;102936.63;;;5.73;61.17
46394;BME280;32099;53.588;10.176;2023-02-28T08:59:41;102942.81;;;5.90;60.53
46394;BME280;32099;53.588;10.176;2023-02-28T09:02:08;102939.06;;;6.07;59.75
46394;BME280;32099;53.588;10.176;2023-02-28T09:04:34;102936.09;;;6.24;59.18
46394;BME280;32099;53.588;10.176;2023-02-28T09:07:00;102943.22;;;6.40;59.41
46394;BME280;32099;53.588;10.176;2023-02-28T09:09:25;102942.22;;;6.55;58.56
46394;BME280;32099;53.588;10.176;2023-02-28T09:11:50;102946.91;;;6.66;57.64
46394;BME280;32099;53.588;10.176;2023-02-28T09:14:16;102947.94;;;6.78;58.03
46394;BME280;32099;53.588;10.176;2023-02-28T09:16:42;102943.19;;;6.94;57.28
46394;BME280;32099;53.588;10.176;2023-02-28T09:19:10;102942.13;;;7.10;56.43
46394;BME280;32099;53.588;10.176;2023-02-28T09:21:36;102945.50;;;7.26;55.90
46394;BME280;32099;53.588;10.176;2023-02-28T09:24:01;102948.88;;;7.43;56.04
46394;BME280;32099;53.588;10.176;2023-02-28T09:26:27;102944.31;;;7.56;55.95
46394;BME280;32099;53.588;10.176;2023-02-28T09:28:52;102943.78;;;7.64;54.34
46394;BME280;32099;53.588;10.176;2023-02-28T09:31:21;102955.16;;;7.69;55.49
46394;BME280;32099;53.588;10.176;2023-02-28T09:33:48;102954.50;;;7.79;54.49
46394;BME280;32099;53.588;10.176;2023-02-28T09:36:14;102951.00;;;7.90;53.45
46394;BME280;32099;53.588;10.176;2023-02-28T09:38:40;102945.03;;;7.97;53.61
46394;BME280;32099;53.588;10.176;2023-02-28T09:41:24;102947.34;;;8.15;53.07
46394;BME280;32099;53.588;10.176;2023-02-28T09:43:57;102950.78;;;8.30;50.65
46394;BME280;32099;53.588;10.176;2023-02-28T09:49:04;102954.72;;;8.63;52.81
46394;BME280;32099;53.588;10.176;2023-02-28T09:51:46;102959.88;;;8.79;51.40
46394;BME280;32099;53.588;10.176;2023-02-28T09:54:19;102961.78;;;9.01;52.40
46394;BME280;32099;53.588;10.176;2023-02-28T09:56:51;102957.03;;;9.27;51.76
46394;BME280;32099;53.588;10.176;2023-02-28T09:59:25;102962.03;;;9.45;49.50
46394;BME280;32099;53.588;10.176;2023-02-28T10:04:50;102957.22;;;9.71;49.76
46394;BME280;32099;53.588;10.176;2023-02-28T10:07:36;102958.72;;;9.76;49.55
46394;BME280;32099;53.588;10.176;2023-02-28T10:10:32;102958.59;;;9.77;48.18
46394;BME280;32099;53.588;10.176;2023-02-28T10:16:11;102949.66;;;9.75;46.44
46394;BME280;32099;53.588;10.176;2023-02-28T10:18:43;102954.50;;;9.71;45.78
46394;BME280;32099;53.588;10.176;2023-02-28T10:21:15;102949.44;;;9.78;47.96
46394;BME280;32099;53.588;10.176;2023-02-28T10:23:45;102953.00;;;9.90;49.34
46394;BME280;32099;53.588;10.176;2023-02-28T10:26:13;102943.81;;;10.02;49.39
46394;BME280;32099;53.588;10.176;2023-02-28T10:28:41;102949.63;;;10.09;46.64
46394;BME280;32099;53.588;10.176;2023-02-28T10:31:09;102950.00;;;10.16;48.61
46394;BME280;32099;53.588;10.176;2023-02-28T10:33:41;102942.81;;;10.15;48.51
46394;BME280;32099;53.588;10.176;2023-02-28T10:36:08;102943.81;;;10.14;48.31
46394;BME280;32099;53.588;10.176;2023-02-28T10:38:39;102950.16;;;10.14;44.95
46394;BME280;32099;53.588;10.176;2023-02-28T10:43:32;102937.22;;;10.28;48.24
46394;BME280;32099;53.588;10.176;2023-02-28T10:48:38;102942.56;;;10.18;46.87
46394;BME280;32099;53.588;10.176;2023-02-28T10:51:06;102946.44;;;10.15;47.15
46394;BME280;32099;53.588;10.176;2023-02-28T11:01:46;102948.56;;;9.89;48.20
46394;BME280;32099;53.588;10.176;2023-02-28T11:04:18;102955.00;;;9.88;46.42
46394;BME280;32099;53.588;10.176;2023-02-28T11:06:44;102950.03;;;9.82;47.04
46394;BME280;32099;53.588;10.176;2023-02-28T11:09:45;102953.50;;;9.72;41.95
46394;BME280;32099;53.588;10.176;2023-02-28T11:12:06;102956.09;;;9.63;45.30
46394;BME280;32099;53.588;10.176;2023-02-28T11:14:47;102953.28;;;9.64;47.77
46394;BME280;32099;53.588;10.176;2023-02-28T11:17:19;102946.31;;;9.60;46.75
46394;BME280;32099;53.588;10.176;2023-02-28T11:19:49;102947.16;;;9.49;46.92
46394;BME280;32099;53.588;10.176;2023-02-28T11:22:18;102943.81;;;9.46;47.90
46394;BME280;32099;53.588;10.176;2023-02-28T11:24:51;102943.22;;;9.42;48.53
46394;BME280;32099;53.588;10.176;2023-02-28T11:27:26;102943.06;;;9.44;44.57
46394;BME280;32099;53.588;10.176;2023-02-28T11:30:44;102933.81;;;9.35;44.92
46394;BME280;32099;53.588;10.176;2023-02-28T11:33:26;102946.09;;;9.05;45.57
46394;BME280;32099;53.588;10.176;2023-02-28T11:36:03;102938.75;;;8.83;44.40
46394;BME280;32099;53.588;10.176;2023-02-28T11:38:35;102934.50;;;8.78;48.21
46394;BME280;32099;53.588;10.176;2023-02-28T11:41:05;102932.66;;;8.79;44.09
46394;BME280;32099;53.588;10.176;2023-02-28T11:43:58;102926.78;;;8.61;42.53
46394;BME280;32099;53.588;10.176;2023-02-28T11:46:42;102926.13;;;8.57;48.21
46394;BME280;32099;53.588;10.176;2023-02-28T11:49:28;102927.13;;;8.56;46.94
46394;BME280;32099;53.588;10.176;2023-02-28T11:52:13;102916.91;;;8.47;47.46
46394;BME280;32099;53.588;10.176;2023-02-28T11:55:11;102913.75;;;8.40;46.81
46394;BME280;32099;53.588;10.176;2023-02-28T11:57:47;102913.13;;;8.37;47.07
46394;BME280;32099;53.588;10.176;2023-02-28T12:00:29;102909.44;;;8.38;47.95
46394;BME280;32099;53.588;10.176;2023-02-28T12:03:27;102909.09;;;8.42;46.81
46394;BME280;32099;53.588;10.176;2023-02-28T12:08:43;102895.84;;;8.38;43.30
46394;BME280;32099;53.588;10.176;2023-02-28T12:11:13;102898.34;;;8.41;48.29
46394;BME280;32099;53.588;10.176;2023-02-28T12:27:11;102874.69;;;8.90;47.29
46394;BME280;32099;53.588;10.176;2023-02-28T12:29:45;102875.31;;;9.05;47.81
46394;BME280;32099;53.588;10.176;2023-02-28T12:32:23;102870.53;;;9.20;46.98
46394;BME280;32099;53.588;10.176;2023-02-28T12:34:57;102874.50;;;9.27;42.43
46394;BME280;32099;53.588;10.176;2023-02-28T12:37:31;102859.16;;;9.15;42.56
46394;BME280;32099;53.588;10.176;2023-02-28T12:40:05;102867.31;;;9.15;40.35
46394;BME280;32099;53.588;10.176;2023-02-28T12:42:52;102863.09;;;9.10;43.76
46394;BME280;32099;53.588;10.176;2023-02-28T12:45:24;102861.50;;;9.19;41.34
46394;BME280;32099;53.588;10.176;2023-02-28T12:47:57;102850.84;;;9.27;42.95
46394;BME280;32099;53.588;10.176;2023-02-28T12:50:26;102846.06;;;9.43;45.33
46394;BME280;32099;53.588;10.176;2023-02-28T12:53:00;102840.94;;;9.61;44.44
46394;BME280;32099;53.588;10.176;2023-02-28T13:09:51;102817.19;;;18.09;32.55
46394;BME280;32099;53.588;10.176;2023-02-28T13:12:19;102819.22;;;14.92;30.86
46394;BME280;32099;53.588;10.176;2023-02-28T13:14:45;102814.66;;;12.81;37.02
46394;BME280;32099;53.588;10.176;2023-02-28T13:17:12;102810.59;;;11.36;33.49
46394;BME280;32099;53.588;10.176;2023-02-28T13:19:46;102806.66;;;10.46;39.78
46394;BME280;32099;53.588;10.176;2023-02-28T13:24:51;102800.72;;;9.97;37.67
46394;BME280;32099;53.588;10.176;2023-02-28T13:33:24;102802.09;;;9.47;43.28
46394;BME280;32099;53.588;10.176;2023-02-28T13:38:40;102798.63;;;9.56;40.65
46394;BME280;32099;53.588;10.176;2023-02-28T13:49:32;102804.44;;;9.52;41.51
46394;BME280;32099;53.588;10.176;2023-02-28T13:57:34;102804.16;;;9.66;43.19
46394;BME280;32099;53.588;10.176;2023-02-28T14:06:15;102804.00;;;9.79;39.32
46394;BME280;32099;53.588;10.176;2023-02-28T14:08:49;102810.97;;;9.49;44.58
46394;BME280;32099;53.588;10.176;2023-02-28T14:11:28;102814.09;;;9.45;41.17
46394;BME280;32099;53.588;10.176;2023-02-28T14:13:56;102810.25;;;9.47;41.16
46394;BME280;32099;53.588;10.176;2023-02-28T14:16:55;102812.34;;;9.32;39.38
46394;BME280;32099;53.588;10.176;2023-02-28T14:19:27;102816.19;;;9.07;40.33
46394;BME280;32099;53.588;10.176;2023-02-28T14:27:20;102808.03;;;9.41;44.67
46394;BME280;32099;53.588;10.176;2023-02-28T14:33:00;102812.09;;;9.58;42.52
46394;BME280;32099;53.588;10.176;2023-02-28T14:38:32;102804.09;;;9.34;41.08
46394;BME280;32099;53.588;10.176;2023-02-28T14:41:03;102813.84;;;9.14;43.35
46394;BME280;32099;53.588;10.176;2023-02-28T14:43:31;102807.28;;;9.05;44.72
46394;BME280;32099;53.588;10.176;2023-02-28T14:45:58;102807.56;;;9.13;40.34
46394;BME280;32099;53.588;10.176;2023-02-28T14:48:25;102809.75;;;9.08;42.94
46394;BME280;32099;53.588;10.176;2023-02-28T14:50:58;102804.44;;;8.95;41.96
46394;BME280;32099;53.588;10.176;2023-02-28T14:53:29;102818.88;;;8.84;42.01
46394;BME280;32099;53.588;10.176;2023-02-28T14:56:00;102822.00;;;8.91;45.21
46394;BME280;32099;53.588;10.176;2023-02-28T14:58:27;102817.31;;;9.04;44.72
46394;BME280;32099;53.588;10.176;2023-02-28T15:00:55;102809.53;;;9.11;42.80
46394;BME280;32099;53.588;10.176;2023-02-28T15:03:44;102806.06;;;9.09;43.23
46394;BME280;32099;53.588;10.176;2023-02-28T15:06:13;102803.94;;;9.13;45.50
46394;BME280;32099;53.588;10.176;2023-02-28T15:08:42;102806.69;;;9.13;44.13
46394;BME280;32099;53.588;10.176;2023-02-28T15:11:13;102805.56;;;9.15;44.44
46394;BME280;32099;53.588;10.176;2023-02-28T15:13:50;102798.13;;;9.17;43.09